Hovedside
METAR-TAF:

METAR-TAF

Lufthavner :

Kosrae, Mikronesia

breddegrad: 05-21N, lengdegrad: 162-57E, høyde over havet: 3 m

Gjeldene værobservasjon

Denne rapporten ble laget for 18 timer og 27 minutter siden, klokken 02:50 UTC
Vind 10 kt fra Sør
Temperatur 31°C
Luftfuktighet 71%
Trykk 1005 hPa
Sikt: 16.1 km
Spredte skyer i en høyde av 2000 ft
Brutte skyer i en høyde av 13000 ft
Overskyet i en høyde av 30000 ft

METAR: PTSA 130250Z 18010KT 10SM SCT020 BKN130 OVC300 31/25 A2967 RMK LAST

Tid: 08:17 (21:17 UTC)

Varsel

Denne rapporten ble laget for 19 timer og 5 minutter siden, klokken 02:12 UTC
Varsel gyldig fra 13. klokken 02 UTC til 13. klokken 24 UTC
Vind 7 kt fra Sørøst
Sikt: 10 km
Spredte skyer i en høyde av 2000 ft
Brutte skyer i en høyde av 13000 ft
regnbyger i nærheten
Midlertidig
fra 13. klokken 03 UTC til 13. klokken 06 UTC
Sikt: 6.4 km
Overskyet i en høyde av 2000 ft
regnbyger

TAF: PTSA 130212Z 1302/1324 14007KT P6SM VCSH SCT020 BKN130 TEMPO 1303/1306 4SM SHRA OVC020

Værobservasjoner og værvarsel for over 4000 flyplasser (METAR- og TAF-rapporter).

Tilgjengelige stasjoner er representert av de røde og gule prikkene på kartet.

Hold musepekeren over prikken for å se navnet på stasjonen.

Klikk så for å se værobservasjoner og -varsler.

For å forandre kartet kan du klikke på den grønne knappen med svart kryss for å zoome inn, på den grønne knappen med strek for å zoome ut, eller på de grønne pilene for å se tilstøtende kart.


METAR-TAF: